AZU4865 SGAS-SBKP
Flight info
| Callsign | AZU4865 |
|---|---|
| Flight time | 1h 28m |
| Altitude | 37000 |
| Route | ROLOK ROLOK UM548 KAMIL UZ28 AKPEN UZ132 EDRAT |
| Aircraft | A21N/M-SDE2E3FGHIRWXY/LB1 |
Departure
| Time | 2026-04-23 18:36 |
|---|---|
| Airport | Silvio Pettirossi International Airport (SGAS) |
Arrival
| Time | 2026-04-23 20:04 |
|---|---|
| Airport | Viracopos International Airport (SBKP) |
| Time | Latitude | Longitude | Altitude | Speed | Heading |
|---|---|---|---|---|---|
| 2026-04-23 18:20 | -25.24053 | -57.51517 | 284 ft | 0 kts | 173° |
| 2026-04-23 18:29 | -25.24055 | -57.51516 | 284 ft | 1 kts | 173° |
| 2026-04-23 18:30 | -25.24071 | -57.51519 | 284 ft | 3 kts | 192° |
| 2026-04-23 18:30 | -25.24098 | -57.51537 | 286 ft | 6 kts | 223° |
| 2026-04-23 18:30 | -25.24128 | -57.51577 | 284 ft | 8 kts | 233° |
| 2026-04-23 18:30 | -25.24171 | -57.51627 | 285 ft | 10 kts | 210° |
| 2026-04-23 18:31 | -25.24248 | -57.51650 | 289 ft | 13 kts | 186° |
| 2026-04-23 18:31 | -25.24337 | -57.51677 | 284 ft | 15 kts | 214° |
| 2026-04-23 18:31 | -25.24404 | -57.51771 | 284 ft | 17 kts | 232° |
| 2026-04-23 18:31 | -25.24514 | -57.51823 | 285 ft | 18 kts | 192° |
| 2026-04-23 18:32 | -25.24645 | -57.51854 | 287 ft | 20 kts | 192° |
| 2026-04-23 18:32 | -25.24787 | -57.51888 | 285 ft | 22 kts | 192° |
| 2026-04-23 18:32 | -25.24941 | -57.51925 | 284 ft | 23 kts | 192° |
| 2026-04-23 18:32 | -25.25105 | -57.51964 | 288 ft | 25 kts | 192° |
| 2026-04-23 18:33 | -25.25280 | -57.52007 | 285 ft | 27 kts | 192° |
| 2026-04-23 18:33 | -25.25405 | -57.52037 | 285 ft | 15 kts | 192° |
| 2026-04-23 18:33 | -25.25479 | -57.52111 | 287 ft | 17 kts | 271° |
| 2026-04-23 18:33 | -25.25461 | -57.52223 | 293 ft | 0 kts | 283° |
| 2026-04-23 18:34 | -25.25459 | -57.52233 | 293 ft | 3 kts | 283° |
| 2026-04-23 18:34 | -25.25457 | -57.52241 | 297 ft | 1 kts | 283° |
| 2026-04-23 18:34 | -25.25448 | -57.52255 | 293 ft | 3 kts | 325° |
| 2026-04-23 18:34 | -25.25419 | -57.52257 | 297 ft | 5 kts | 8° |
| 2026-04-23 18:35 | -25.25402 | -57.52253 | 293 ft | 0 kts | 13° |
| 2026-04-23 18:35 | -25.25400 | -57.52253 | 293 ft | 2 kts | 13° |
| 2026-04-23 18:35 | -25.25167 | -57.52194 | 290 ft | 75 kts | 13° |
| 2026-04-23 18:35 | -25.24408 | -57.52011 | 289 ft | 147 kts | 12° |
| 2026-04-23 18:36 | -25.23228 | -57.51727 | 519 ft | 176 kts | 12° |
| 2026-04-23 18:36 | -25.22068 | -57.51470 | 1533 ft | 167 kts | 11° |
| 2026-04-23 18:36 | -25.20830 | -57.51179 | 2037 ft | 192 kts | 14° |
| 2026-04-23 18:36 | -25.19494 | -57.50835 | 2612 ft | 207 kts | 12° |
| 2026-04-23 18:37 | -25.18040 | -57.50481 | 3164 ft | 223 kts | 12° |
| 2026-04-23 18:37 | -25.16437 | -57.50095 | 3566 ft | 247 kts | 12° |
| 2026-04-23 18:37 | -25.14695 | -57.49677 | 4144 ft | 263 kts | 12° |
| 2026-04-23 18:37 | -25.12911 | -57.49159 | 4925 ft | 268 kts | 22° |
| 2026-04-23 18:38 | -25.11400 | -57.47959 | 5730 ft | 273 kts | 48° |
| 2026-04-23 18:38 | -25.10480 | -57.46125 | 6540 ft | 279 kts | 72° |
| 2026-04-23 18:38 | -25.10345 | -57.43980 | 7303 ft | 287 kts | 97° |
| 2026-04-23 18:38 | -25.11083 | -57.41919 | 8055 ft | 295 kts | 124° |
| 2026-04-23 18:39 | -25.12564 | -57.40350 | 8790 ft | 301 kts | 144° |
| 2026-04-23 18:39 | -25.14320 | -57.39058 | 9546 ft | 305 kts | 146° |
| 2026-04-23 18:39 | -25.16049 | -57.37676 | 10255 ft | 311 kts | 137° |
| 2026-04-23 18:39 | -25.17405 | -57.35760 | 10620 ft | 327 kts | 115° |
| 2026-04-23 18:40 | -25.18187 | -57.33344 | 10953 ft | 343 kts | 104° |
| 2026-04-23 18:40 | -25.18797 | -57.30752 | 11494 ft | 352 kts | 103° |
| 2026-04-23 18:40 | -25.19408 | -57.28111 | 12213 ft | 357 kts | 103° |
| 2026-04-23 18:40 | -25.20039 | -57.25452 | 12958 ft | 360 kts | 104° |
| 2026-04-23 18:41 | -25.20690 | -57.22763 | 13671 ft | 365 kts | 104° |
| 2026-04-23 18:41 | -25.21353 | -57.20051 | 14339 ft | 370 kts | 104° |
| 2026-04-23 18:41 | -25.22034 | -57.17294 | 14993 ft | 374 kts | 104° |
| 2026-04-23 18:41 | -25.22717 | -57.14509 | 15622 ft | 378 kts | 104° |
| 2026-04-23 18:42 | -25.23406 | -57.11689 | 16232 ft | 382 kts | 104° |
| 2026-04-23 18:42 | -25.24104 | -57.08832 | 16823 ft | 387 kts | 104° |
| 2026-04-23 18:42 | -25.24810 | -57.05951 | 17398 ft | 391 kts | 104° |
| 2026-04-23 18:42 | -25.25523 | -57.03039 | 17955 ft | 395 kts | 104° |
| 2026-04-23 18:43 | -25.26245 | -57.00097 | 18492 ft | 399 kts | 104° |
| 2026-04-23 18:43 | -25.26973 | -56.97116 | 19005 ft | 404 kts | 104° |
| 2026-04-23 18:43 | -25.27708 | -56.94100 | 19505 ft | 408 kts | 104° |
| 2026-04-23 18:43 | -25.28453 | -56.91056 | 19994 ft | 413 kts | 104° |
| 2026-04-23 18:44 | -25.29199 | -56.87978 | 20474 ft | 417 kts | 104° |
| 2026-04-23 18:44 | -25.29957 | -56.84866 | 20933 ft | 421 kts | 104° |
| 2026-04-23 18:44 | -25.30712 | -56.81753 | 21383 ft | 425 kts | 104° |
| 2026-04-23 18:44 | -25.31474 | -56.78608 | 21819 ft | 430 kts | 104° |
| 2026-04-23 18:45 | -25.32248 | -56.75399 | 22254 ft | 434 kts | 104° |
| 2026-04-23 18:45 | -25.33030 | -56.72174 | 22698 ft | 438 kts | 104° |
| 2026-04-23 18:45 | -25.33820 | -56.68913 | 23114 ft | 442 kts | 104° |
| 2026-04-23 18:45 | -25.34615 | -56.65622 | 23511 ft | 446 kts | 104° |
| 2026-04-23 18:46 | -25.35414 | -56.62297 | 23908 ft | 449 kts | 103° |
| 2026-04-23 18:46 | -25.35975 | -56.58898 | 24285 ft | 451 kts | 97° |
| 2026-04-23 18:46 | -25.36380 | -56.55445 | 24642 ft | 455 kts | 96° |
| 2026-04-23 18:46 | -25.36769 | -56.51959 | 25008 ft | 458 kts | 96° |
| 2026-04-23 18:47 | -25.37162 | -56.48449 | 25345 ft | 462 kts | 96° |
| 2026-04-23 18:47 | -25.37560 | -56.44915 | 25697 ft | 465 kts | 96° |
| 2026-04-23 18:47 | -25.37959 | -56.41351 | 26038 ft | 468 kts | 96° |
| 2026-04-23 18:47 | -25.38367 | -56.37765 | 26368 ft | 471 kts | 96° |
| 2026-04-23 18:48 | -25.38779 | -56.34161 | 26689 ft | 474 kts | 96° |
| 2026-04-23 18:48 | -25.39186 | -56.30532 | 27004 ft | 477 kts | 96° |
| 2026-04-23 18:48 | -25.39600 | -56.26877 | 27311 ft | 480 kts | 96° |
| 2026-04-23 18:48 | -25.40013 | -56.23204 | 27602 ft | 483 kts | 96° |
| 2026-04-23 18:49 | -25.40429 | -56.19502 | 27893 ft | 486 kts | 96° |
| 2026-04-23 18:49 | -25.40843 | -56.15787 | 28178 ft | 489 kts | 96° |
| 2026-04-23 18:49 | -25.41257 | -56.12046 | 28444 ft | 491 kts | 96° |
| 2026-04-23 18:49 | -25.41682 | -56.08293 | 28716 ft | 494 kts | 96° |
| 2026-04-23 18:50 | -25.41965 | -56.05787 | 28901 ft | 496 kts | 96° |
| 2026-04-23 18:50 | -25.42533 | -56.00714 | 29269 ft | 499 kts | 96° |
| 2026-04-23 18:50 | -25.42957 | -55.96887 | 29536 ft | 501 kts | 96° |
| 2026-04-23 18:50 | -25.43376 | -55.93057 | 29784 ft | 504 kts | 96° |
| 2026-04-23 18:51 | -25.43795 | -55.89243 | 30037 ft | 507 kts | 96° |
| 2026-04-23 18:51 | -25.44223 | -55.85316 | 30305 ft | 509 kts | 96° |
| 2026-04-23 18:51 | -25.44635 | -55.81472 | 30554 ft | 511 kts | 96° |
| 2026-04-23 18:51 | -25.45068 | -55.77515 | 30805 ft | 513 kts | 96° |
| 2026-04-23 18:52 | -25.45491 | -55.73632 | 31038 ft | 515 kts | 96° |
| 2026-04-23 18:52 | -25.45914 | -55.69690 | 31281 ft | 517 kts | 96° |
| 2026-04-23 18:52 | -25.46348 | -55.65689 | 31571 ft | 518 kts | 96° |
| 2026-04-23 18:52 | -25.46768 | -55.61791 | 31902 ft | 517 kts | 96° |
| 2026-04-23 18:53 | -25.47191 | -55.57842 | 32216 ft | 516 kts | 96° |
| 2026-04-23 18:53 | -25.47610 | -55.53898 | 32485 ft | 516 kts | 96° |
| 2026-04-23 18:53 | -25.48031 | -55.49956 | 32773 ft | 516 kts | 96° |
| 2026-04-23 18:53 | -25.48451 | -55.46015 | 33075 ft | 515 kts | 96° |
| 2026-04-23 18:54 | -25.48873 | -55.42075 | 33354 ft | 515 kts | 96° |
| 2026-04-23 18:54 | -25.49293 | -55.38138 | 33611 ft | 515 kts | 96° |
| 2026-04-23 18:54 | -25.49709 | -55.34205 | 33862 ft | 515 kts | 96° |
| 2026-04-23 18:54 | -25.50127 | -55.30266 | 34090 ft | 515 kts | 97° |
| 2026-04-23 18:55 | -25.50543 | -55.26338 | 34343 ft | 514 kts | 97° |
| 2026-04-23 18:55 | -25.50959 | -55.22400 | 34589 ft | 514 kts | 97° |
| 2026-04-23 18:55 | -25.51367 | -55.18477 | 34835 ft | 513 kts | 97° |
| 2026-04-23 18:55 | -25.51779 | -55.14562 | 35066 ft | 512 kts | 97° |
| 2026-04-23 18:56 | -25.52056 | -55.11916 | 35221 ft | 512 kts | 97° |
| 2026-04-23 18:56 | -25.52590 | -55.06731 | 35516 ft | 511 kts | 97° |
| 2026-04-23 18:56 | -25.52993 | -55.02828 | 35735 ft | 510 kts | 97° |
| 2026-04-23 18:56 | -25.53395 | -54.98932 | 35929 ft | 510 kts | 97° |
| 2026-04-23 18:57 | -25.53800 | -54.95028 | 36114 ft | 509 kts | 97° |
| 2026-04-23 18:57 | -25.54202 | -54.91126 | 36314 ft | 509 kts | 97° |
| 2026-04-23 18:57 | -25.54597 | -54.87318 | 36464 ft | 509 kts | 97° |
| 2026-04-23 18:57 | -25.55000 | -54.83424 | 36649 ft | 509 kts | 97° |
| 2026-04-23 18:58 | -25.55397 | -54.79536 | 36897 ft | 506 kts | 97° |
| 2026-04-23 18:58 | -25.55785 | -54.75678 | 37073 ft | 503 kts | 97° |
| 2026-04-23 18:58 | -25.56176 | -54.71829 | 37084 ft | 501 kts | 97° |
| 2026-04-23 18:59 | -25.56949 | -54.64172 | 37046 ft | 501 kts | 97° |
| 2026-04-23 18:59 | -25.57722 | -54.56500 | 37023 ft | 501 kts | 97° |
| 2026-04-23 19:00 | -25.58360 | -54.48809 | 37021 ft | 502 kts | 91° |
| 2026-04-23 19:00 | -25.58430 | -54.41111 | 37025 ft | 503 kts | 91° |
| 2026-04-23 19:01 | -25.58497 | -54.33375 | 37025 ft | 503 kts | 91° |
| 2026-04-23 19:01 | -25.58547 | -54.25628 | 37030 ft | 503 kts | 91° |
| 2026-04-23 19:02 | -25.58594 | -54.19130 | 37030 ft | 503 kts | 91° |
| 2026-04-23 19:02 | -25.58634 | -54.11385 | 37028 ft | 504 kts | 91° |
| 2026-04-23 19:03 | -25.58673 | -54.03622 | 37040 ft | 504 kts | 91° |
| 2026-04-23 19:03 | -25.58709 | -53.95858 | 37041 ft | 504 kts | 91° |
| 2026-04-23 19:04 | -25.58740 | -53.88149 | 37052 ft | 503 kts | 91° |
| 2026-04-23 19:04 | -25.58771 | -53.80392 | 37056 ft | 503 kts | 91° |
| 2026-04-23 19:05 | -25.58087 | -53.72699 | 37066 ft | 505 kts | 78° |
| 2026-04-23 19:05 | -25.56647 | -53.65108 | 37075 ft | 502 kts | 77° |
| 2026-04-23 19:06 | -25.55203 | -53.57536 | 37086 ft | 502 kts | 77° |
| 2026-04-23 19:06 | -25.53787 | -53.49966 | 37097 ft | 502 kts | 77° |
| 2026-04-23 19:07 | -25.52371 | -53.42413 | 37106 ft | 502 kts | 77° |
| 2026-04-23 19:07 | -25.50947 | -53.34854 | 37109 ft | 501 kts | 77° |
| 2026-04-23 19:08 | -25.49525 | -53.27309 | 37118 ft | 502 kts | 77° |
| 2026-04-23 19:08 | -25.48091 | -53.19767 | 37122 ft | 500 kts | 77° |
| 2026-04-23 19:09 | -25.46674 | -53.12242 | 37122 ft | 499 kts | 78° |
| 2026-04-23 19:09 | -25.45251 | -53.04724 | 37121 ft | 499 kts | 77° |
| 2026-04-23 19:10 | -25.43832 | -52.97281 | 37118 ft | 500 kts | 77° |
| 2026-04-23 19:10 | -25.42361 | -52.89683 | 37124 ft | 500 kts | 77° |
| 2026-04-23 19:11 | -25.40899 | -52.82171 | 37117 ft | 499 kts | 77° |
| 2026-04-23 19:11 | -25.39463 | -52.74705 | 37117 ft | 500 kts | 77° |
| 2026-04-23 19:12 | -25.38017 | -52.67188 | 37114 ft | 499 kts | 77° |
| 2026-04-23 19:12 | -25.36562 | -52.59682 | 37116 ft | 499 kts | 77° |
| 2026-04-23 19:13 | -25.35098 | -52.52165 | 37139 ft | 500 kts | 77° |
| 2026-04-23 19:13 | -25.33638 | -52.44668 | 37127 ft | 499 kts | 77° |
| 2026-04-23 19:14 | -25.32165 | -52.37162 | 37133 ft | 500 kts | 77° |
| 2026-04-23 19:14 | -25.30678 | -52.29652 | 37131 ft | 500 kts | 77° |
| 2026-04-23 19:15 | -25.29191 | -52.22151 | 37130 ft | 500 kts | 77° |
| 2026-04-23 19:15 | -25.27713 | -52.14654 | 37127 ft | 500 kts | 77° |
| 2026-04-23 19:16 | -25.26221 | -52.07143 | 37132 ft | 499 kts | 77° |
| 2026-04-23 19:16 | -25.24726 | -51.99653 | 37136 ft | 500 kts | 77° |
| 2026-04-23 19:17 | -25.22478 | -51.88406 | 37138 ft | 500 kts | 77° |
| 2026-04-23 19:17 | -25.20973 | -51.80920 | 37139 ft | 499 kts | 77° |
| 2026-04-23 19:18 | -25.19470 | -51.73443 | 37145 ft | 499 kts | 77° |
| 2026-04-23 19:18 | -25.17970 | -51.65970 | 37131 ft | 498 kts | 77° |
| 2026-04-23 19:19 | -25.15697 | -51.54776 | 37110 ft | 499 kts | 77° |
| 2026-04-23 19:20 | -25.13412 | -51.43571 | 37112 ft | 499 kts | 77° |
| 2026-04-23 19:20 | -25.11887 | -51.36105 | 37119 ft | 499 kts | 77° |
| 2026-04-23 19:21 | -25.09591 | -51.24926 | 37125 ft | 498 kts | 77° |
| 2026-04-23 19:22 | -25.08060 | -51.17472 | 37131 ft | 497 kts | 77° |
| 2026-04-23 19:22 | -25.05759 | -51.06303 | 37139 ft | 498 kts | 77° |
| 2026-04-23 19:23 | -25.04232 | -50.98864 | 37130 ft | 498 kts | 77° |
| 2026-04-23 19:24 | -25.01904 | -50.87719 | 37149 ft | 497 kts | 77° |
| 2026-04-23 19:24 | -24.99573 | -50.76591 | 37151 ft | 497 kts | 77° |
| 2026-04-23 19:25 | -24.96457 | -50.61758 | 37156 ft | 497 kts | 77° |
| 2026-04-23 19:26 | -24.94085 | -50.50664 | 37164 ft | 498 kts | 76° |
| 2026-04-23 19:27 | -24.90144 | -50.32144 | 37171 ft | 496 kts | 77° |
| 2026-04-23 19:28 | -24.86997 | -50.17417 | 37170 ft | 496 kts | 76° |
| 2026-04-23 19:29 | -24.84610 | -50.06335 | 37182 ft | 496 kts | 76° |
| 2026-04-23 19:30 | -24.82225 | -49.95276 | 37178 ft | 495 kts | 77° |
| 2026-04-23 19:31 | -24.79835 | -49.84221 | 37190 ft | 495 kts | 76° |
| 2026-04-23 19:31 | -24.77987 | -49.76924 | 37183 ft | 495 kts | 73° |
| 2026-04-23 19:32 | -24.76079 | -49.69655 | 37196 ft | 495 kts | 73° |
| 2026-04-23 19:32 | -24.74171 | -49.62387 | 37215 ft | 495 kts | 73° |
| 2026-04-23 19:33 | -24.72264 | -49.55116 | 37208 ft | 495 kts | 73° |
| 2026-04-23 19:33 | -24.69395 | -49.44219 | 37193 ft | 495 kts | 73° |
| 2026-04-23 19:34 | -24.67481 | -49.36944 | 37194 ft | 495 kts | 74° |
| 2026-04-23 19:35 | -24.64628 | -49.26044 | 37200 ft | 495 kts | 74° |
| 2026-04-23 19:35 | -24.62726 | -49.18775 | 37220 ft | 495 kts | 74° |
| 2026-04-23 19:36 | -24.60795 | -49.11519 | 37209 ft | 493 kts | 73° |
| 2026-04-23 19:36 | -24.58854 | -49.04340 | 37180 ft | 494 kts | 73° |
| 2026-04-23 19:37 | -24.56897 | -48.97108 | 37182 ft | 494 kts | 73° |
| 2026-04-23 19:37 | -24.54943 | -48.89878 | 37185 ft | 494 kts | 73° |
| 2026-04-23 19:38 | -24.52929 | -48.82669 | 37182 ft | 494 kts | 68° |
| 2026-04-23 19:38 | -24.51434 | -48.79284 | 37179 ft | 493 kts | 57° |
| 2026-04-23 19:38 | -24.49396 | -48.76275 | 37179 ft | 489 kts | 45° |
| 2026-04-23 19:38 | -24.46894 | -48.73782 | 37174 ft | 484 kts | 33° |
| 2026-04-23 19:39 | -24.44095 | -48.71750 | 37181 ft | 481 kts | 28° |
| 2026-04-23 19:39 | -24.38416 | -48.67957 | 36781 ft | 477 kts | 28° |
| 2026-04-23 19:39 | -24.35589 | -48.66043 | 36511 ft | 479 kts | 28° |
| 2026-04-23 19:40 | -24.32754 | -48.64101 | 36252 ft | 481 kts | 28° |
| 2026-04-23 19:40 | -24.29915 | -48.62143 | 35954 ft | 484 kts | 28° |
| 2026-04-23 19:40 | -24.27070 | -48.60184 | 35451 ft | 481 kts | 28° |
| 2026-04-23 19:40 | -24.24239 | -48.58241 | 34913 ft | 479 kts | 28° |
| 2026-04-23 19:41 | -24.21415 | -48.56306 | 34343 ft | 478 kts | 28° |
| 2026-04-23 19:41 | -24.18605 | -48.54381 | 33794 ft | 476 kts | 28° |
| 2026-04-23 19:41 | -24.15800 | -48.52459 | 33248 ft | 474 kts | 28° |
| 2026-04-23 19:41 | -24.13008 | -48.50543 | 32710 ft | 473 kts | 28° |
| 2026-04-23 19:42 | -24.10228 | -48.48639 | 32190 ft | 470 kts | 28° |
| 2026-04-23 19:42 | -24.07459 | -48.46747 | 31646 ft | 468 kts | 28° |
| 2026-04-23 19:42 | -24.04706 | -48.44858 | 31109 ft | 466 kts | 28° |
| 2026-04-23 19:42 | -24.01971 | -48.42974 | 30588 ft | 463 kts | 28° |
| 2026-04-23 19:43 | -23.99251 | -48.41103 | 30066 ft | 461 kts | 28° |
| 2026-04-23 19:43 | -23.96539 | -48.39248 | 29523 ft | 459 kts | 28° |
| 2026-04-23 19:43 | -23.93836 | -48.37411 | 28992 ft | 456 kts | 28° |
| 2026-04-23 19:43 | -23.91154 | -48.35588 | 28463 ft | 454 kts | 28° |
| 2026-04-23 19:44 | -23.88482 | -48.33769 | 27947 ft | 451 kts | 28° |
| 2026-04-23 19:44 | -23.85828 | -48.31963 | 27427 ft | 448 kts | 28° |
| 2026-04-23 19:44 | -23.83211 | -48.30126 | 26888 ft | 447 kts | 31° |
| 2026-04-23 19:44 | -23.80664 | -48.28211 | 26359 ft | 442 kts | 32° |
| 2026-04-23 19:45 | -23.78163 | -48.26315 | 25850 ft | 436 kts | 32° |
| 2026-04-23 19:45 | -23.75683 | -48.24435 | 25340 ft | 431 kts | 32° |
| 2026-04-23 19:45 | -23.73237 | -48.22578 | 24842 ft | 426 kts | 32° |
| 2026-04-23 19:45 | -23.70817 | -48.20744 | 24387 ft | 420 kts | 32° |
| 2026-04-23 19:46 | -23.69241 | -48.19554 | 24176 ft | 413 kts | 32° |
| 2026-04-23 19:46 | -23.66902 | -48.17789 | 23855 ft | 404 kts | 33° |
| 2026-04-23 19:46 | -23.64606 | -48.16057 | 23426 ft | 399 kts | 33° |
| 2026-04-23 19:46 | -23.62335 | -48.14346 | 22967 ft | 394 kts | 33° |
| 2026-04-23 19:47 | -23.60089 | -48.12653 | 22489 ft | 390 kts | 33° |
| 2026-04-23 19:47 | -23.57864 | -48.10977 | 21991 ft | 387 kts | 33° |
| 2026-04-23 19:47 | -23.55656 | -48.09312 | 21485 ft | 384 kts | 33° |
| 2026-04-23 19:47 | -23.53469 | -48.07663 | 21010 ft | 380 kts | 34° |
| 2026-04-23 19:48 | -23.51302 | -48.06033 | 20535 ft | 376 kts | 34° |
| 2026-04-23 19:48 | -23.49159 | -48.04418 | 20063 ft | 373 kts | 34° |
| 2026-04-23 19:48 | -23.47036 | -48.02819 | 19610 ft | 369 kts | 34° |
| 2026-04-23 19:48 | -23.44937 | -48.01242 | 19181 ft | 364 kts | 34° |
| 2026-04-23 19:49 | -23.42865 | -47.99686 | 18773 ft | 359 kts | 34° |
| 2026-04-23 19:49 | -23.40821 | -47.98150 | 18354 ft | 355 kts | 34° |
| 2026-04-23 19:49 | -23.38801 | -47.96633 | 17950 ft | 352 kts | 34° |
| 2026-04-23 19:49 | -23.36789 | -47.95121 | 17566 ft | 351 kts | 35° |
| 2026-04-23 19:50 | -23.34781 | -47.93612 | 17182 ft | 351 kts | 35° |
| 2026-04-23 19:50 | -23.32774 | -47.92106 | 16783 ft | 350 kts | 35° |
| 2026-04-23 19:50 | -23.30798 | -47.90624 | 16392 ft | 350 kts | 35° |
| 2026-04-23 19:50 | -23.28792 | -47.89118 | 15970 ft | 351 kts | 35° |
| 2026-04-23 19:51 | -23.26778 | -47.87605 | 15476 ft | 353 kts | 35° |
| 2026-04-23 19:51 | -23.24751 | -47.86085 | 14954 ft | 353 kts | 35° |
| 2026-04-23 19:51 | -23.22733 | -47.84572 | 14428 ft | 351 kts | 36° |
| 2026-04-23 19:51 | -23.20888 | -47.82860 | 13899 ft | 348 kts | 50° |
| 2026-04-23 19:52 | -23.19580 | -47.80665 | 13397 ft | 345 kts | 62° |
| 2026-04-23 19:52 | -23.18472 | -47.78365 | 12917 ft | 342 kts | 63° |
| 2026-04-23 19:52 | -23.17390 | -47.76080 | 12440 ft | 339 kts | 63° |
| 2026-04-23 19:52 | -23.16308 | -47.73820 | 12012 ft | 335 kts | 63° |
| 2026-04-23 19:53 | -23.15236 | -47.71607 | 11668 ft | 328 kts | 63° |
| 2026-04-23 19:53 | -23.14185 | -47.69450 | 11367 ft | 321 kts | 63° |
| 2026-04-23 19:53 | -23.13149 | -47.67332 | 11078 ft | 314 kts | 62° |
| 2026-04-23 19:53 | -23.12136 | -47.65261 | 10790 ft | 308 kts | 62° |
| 2026-04-23 19:54 | -23.11144 | -47.63240 | 10587 ft | 298 kts | 62° |
| 2026-04-23 19:54 | -23.10178 | -47.61271 | 10224 ft | 295 kts | 62° |
| 2026-04-23 19:54 | -23.09244 | -47.59367 | 9782 ft | 292 kts | 62° |
| 2026-04-23 19:54 | -23.08346 | -47.57536 | 9350 ft | 277 kts | 62° |
| 2026-04-23 19:55 | -23.07461 | -47.55737 | 8927 ft | 264 kts | 62° |
| 2026-04-23 19:55 | -23.06592 | -47.53967 | 8537 ft | 265 kts | 62° |
| 2026-04-23 19:55 | -23.05725 | -47.52202 | 8168 ft | 264 kts | 62° |
| 2026-04-23 19:55 | -23.04866 | -47.50452 | 7814 ft | 262 kts | 62° |
| 2026-04-23 19:56 | -23.04008 | -47.48704 | 7485 ft | 261 kts | 62° |
| 2026-04-23 19:56 | -23.03153 | -47.46970 | 7173 ft | 260 kts | 62° |
| 2026-04-23 19:56 | -23.02302 | -47.45239 | 6850 ft | 259 kts | 62° |
| 2026-04-23 19:56 | -23.01439 | -47.43487 | 6554 ft | 271 kts | 62° |
| 2026-04-23 19:57 | -23.00598 | -47.41779 | 6473 ft | 242 kts | 62° |
| 2026-04-23 19:57 | -22.99853 | -47.40266 | 6451 ft | 222 kts | 62° |
| 2026-04-23 19:57 | -22.99128 | -47.38794 | 6473 ft | 221 kts | 62° |
| 2026-04-23 19:57 | -22.98401 | -47.37318 | 6489 ft | 221 kts | 62° |
| 2026-04-23 19:58 | -22.97629 | -47.35849 | 6493 ft | 221 kts | 54° |
| 2026-04-23 19:58 | -22.96593 | -47.34703 | 6227 ft | 213 kts | 38° |
| 2026-04-23 19:58 | -22.95447 | -47.33781 | 5974 ft | 196 kts | 36° |
| 2026-04-23 19:58 | -22.94392 | -47.32947 | 5814 ft | 179 kts | 37° |
| 2026-04-23 19:59 | -22.93425 | -47.32162 | 5552 ft | 169 kts | 38° |
| 2026-04-23 19:59 | -22.92508 | -47.31405 | 5084 ft | 165 kts | 38° |
| 2026-04-23 19:59 | -22.91590 | -47.30635 | 4802 ft | 168 kts | 38° |
| 2026-04-23 19:59 | -22.90688 | -47.29861 | 4563 ft | 156 kts | 43° |
| 2026-04-23 20:00 | -22.90176 | -47.28885 | 4381 ft | 152 kts | 83° |
| 2026-04-23 20:00 | -22.90457 | -47.27813 | 4317 ft | 151 kts | 122° |
| 2026-04-23 20:00 | -22.91106 | -47.26921 | 4220 ft | 150 kts | 129° |
| 2026-04-23 20:00 | -22.91748 | -47.26037 | 4118 ft | 149 kts | 128° |
| 2026-04-23 20:01 | -22.92388 | -47.25146 | 4170 ft | 150 kts | 128° |
| 2026-04-23 20:01 | -22.93024 | -47.24256 | 4137 ft | 150 kts | 128° |
| 2026-04-23 20:01 | -22.93659 | -47.23366 | 4060 ft | 149 kts | 128° |
| 2026-04-23 20:01 | -22.94293 | -47.22479 | 3918 ft | 149 kts | 128° |
| 2026-04-23 20:02 | -22.94925 | -47.21593 | 3734 ft | 148 kts | 128° |
| 2026-04-23 20:02 | -22.95555 | -47.20710 | 3539 ft | 148 kts | 128° |
| 2026-04-23 20:02 | -22.96182 | -47.19832 | 3351 ft | 146 kts | 128° |
| 2026-04-23 20:02 | -22.96805 | -47.18960 | 3149 ft | 146 kts | 128° |
| 2026-04-23 20:03 | -22.97426 | -47.18088 | 2943 ft | 146 kts | 128° |
| 2026-04-23 20:03 | -22.98011 | -47.17269 | 2761 ft | 145 kts | 127° |
| 2026-04-23 20:03 | -22.98629 | -47.16403 | 2570 ft | 145 kts | 128° |
| 2026-04-23 20:03 | -22.99249 | -47.15534 | 2382 ft | 145 kts | 127° |
| 2026-04-23 20:04 | -22.99872 | -47.14661 | 2175 ft | 146 kts | 128° |
| 2026-04-23 20:04 | -23.00359 | -47.13979 | 2157 ft | 73 kts | 127° |
| 2026-04-23 20:04 | -23.00486 | -47.13801 | 2161 ft | 0 kts | 139° |
| 2026-04-23 20:05 | -23.00527 | -47.13767 | 2158 ft | 14 kts | 149° |
| 2026-04-23 20:05 | -23.00637 | -47.13708 | 2160 ft | 0 kts | 163° |
| 2026-04-23 20:06 | -23.00648 | -47.13704 | 2161 ft | 3 kts | 159° |
| 2026-04-23 20:06 | -23.00679 | -47.13691 | 2161 ft | 6 kts | 159° |
| 2026-04-23 20:06 | -23.00729 | -47.13670 | 2162 ft | 9 kts | 159° |
| 2026-04-23 20:07 | -23.00798 | -47.13671 | 2162 ft | 12 kts | 205° |
| 2026-04-23 20:07 | -23.00849 | -47.13740 | 2157 ft | 14 kts | 274° |
| 2026-04-23 20:07 | -23.00805 | -47.13839 | 2160 ft | 16 kts | 304° |
| 2026-04-23 20:07 | -23.00735 | -47.13940 | 2162 ft | 18 kts | 307° |
| 2026-04-23 20:08 | -23.00656 | -47.14051 | 2161 ft | 20 kts | 307° |
| 2026-04-23 20:08 | -23.00570 | -47.14174 | 2161 ft | 21 kts | 307° |
| 2026-04-23 20:08 | -23.00476 | -47.14307 | 2159 ft | 23 kts | 307° |
| 2026-04-23 20:08 | -23.00374 | -47.14441 | 2158 ft | 25 kts | 313° |
| 2026-04-23 20:09 | -23.00259 | -47.14595 | 2160 ft | 26 kts | 306° |
| 2026-04-23 20:09 | -23.00220 | -47.14655 | 2158 ft | 10 kts | 306° |
| 2026-04-23 20:09 | -23.00174 | -47.14719 | 2159 ft | 12 kts | 310° |
| 2026-04-23 20:09 | -23.00118 | -47.14793 | 2158 ft | 14 kts | 308° |
| 2026-04-23 20:10 | -23.00102 | -47.14861 | 2163 ft | 15 kts | 269° |
| 2026-04-23 20:10 | -23.00137 | -47.14967 | 2163 ft | 0 kts | 227° |
| 2026-04-23 20:11 | -23.00142 | -47.14972 | 2163 ft | 2 kts | 224° |
| 2026-04-23 20:11 | -23.00158 | -47.14987 | 2163 ft | 4 kts | 218° |
| 2026-04-23 20:11 | -23.00189 | -47.15011 | 2163 ft | 6 kts | 208° |
| 2026-04-23 20:11 | -23.00238 | -47.14998 | 2159 ft | 9 kts | 142° |
| 2026-04-23 20:12 | -23.00266 | -47.14967 | 2163 ft | 0 kts | 130° |
| 2026-04-23 20:12 | -23.00271 | -47.14960 | 2163 ft | 2 kts | 130° |
| 2026-04-23 20:12 | -23.00291 | -47.14946 | 2163 ft | 5 kts | 172° |
| 2026-04-23 20:12 | -23.00326 | -47.14961 | 2156 ft | 5 kts | 210° |
| 2026-04-23 20:13 | -23.00327 | -47.14963 | 2163 ft | 0 kts | 213° |